createdAt,value
2022-08-26T00:02:08.678Z,0.70
2022-08-26T00:04:38.290Z,0.80
2022-08-26T00:07:07.475Z,0.60
2022-08-26T00:09:40.375Z,0.60
2022-08-26T00:12:12.138Z,0.60
2022-08-26T00:14:42.294Z,0.80
2022-08-26T00:17:11.793Z,0.70
2022-08-26T00:19:41.006Z,0.60
2022-08-26T00:22:11.213Z,0.80
2022-08-26T00:24:40.873Z,0.70
2022-08-26T00:27:17.494Z,0.70
2022-08-26T00:29:47.101Z,0.70
2022-08-26T00:32:16.650Z,0.60
2022-08-26T00:34:46.940Z,0.60
2022-08-26T00:37:16.974Z,0.70
2022-08-26T00:39:46.032Z,0.80
2022-08-26T00:42:15.342Z,0.90
2022-08-26T00:44:45.676Z,0.70
2022-08-26T00:47:31.627Z,0.70
2022-08-26T00:50:03.245Z,0.80
2022-08-26T00:52:32.846Z,0.70
2022-08-26T00:55:08.139Z,0.40
2022-08-26T00:57:38.036Z,0.60
2022-08-26T01:00:13.662Z,0.70
2022-08-26T01:02:46.833Z,0.80
2022-08-26T01:05:18.858Z,0.50
2022-08-26T01:07:48.218Z,0.70
2022-08-26T01:10:23.518Z,0.70
2022-08-26T01:13:01.294Z,0.70
2022-08-26T01:15:42.817Z,0.80
2022-08-26T01:18:12.829Z,0.70
2022-08-26T01:20:48.123Z,0.80
2022-08-26T01:23:18.085Z,0.80
2022-08-26T01:25:57.134Z,0.80
2022-08-26T01:28:32.166Z,0.70
2022-08-26T01:31:03.316Z,0.80
2022-08-26T01:33:45.807Z,0.90
2022-08-26T01:36:15.640Z,0.70
2022-08-26T01:38:45.745Z,0.70
2022-08-26T01:41:19.532Z,0.80
2022-08-26T01:43:54.466Z,0.70
2022-08-26T01:48:55.619Z,0.70
2022-08-26T01:51:26.806Z,0.80
2022-08-26T01:53:59.527Z,0.80
2022-08-26T01:56:33.393Z,0.80
2022-08-26T01:59:11.355Z,0.60
2022-08-26T02:01:42.235Z,0.90
2022-08-26T02:04:34.695Z,0.70
2022-08-26T02:07:08.475Z,0.60
2022-08-26T02:09:41.808Z,0.70
2022-08-26T02:12:13.805Z,0.80
2022-08-26T02:14:52.986Z,0.80
2022-08-26T02:17:27.250Z,0.70
2022-08-26T02:19:58.598Z,0.80
2022-08-26T02:22:31.273Z,1.10
2022-08-26T02:25:11.029Z,0.70
2022-08-26T02:27:40.534Z,0.70
2022-08-26T02:30:17.098Z,0.70
2022-08-26T02:32:49.573Z,0.70
2022-08-26T02:35:21.851Z,0.90
2022-08-26T02:37:52.633Z,1.00
2022-08-26T02:40:25.497Z,0.70
2022-08-26T02:42:56.089Z,0.80
2022-08-26T02:45:29.128Z,0.80
2022-08-26T02:47:59.692Z,1.00
2022-08-26T02:50:29.315Z,0.80
2022-08-26T02:52:58.394Z,0.80
2022-08-26T02:55:28.242Z,0.80
2022-08-26T02:57:57.843Z,0.80
2022-08-26T03:00:27.448Z,0.80
2022-08-26T03:02:57.837Z,0.80
2022-08-26T03:05:27.863Z,0.80
2022-08-26T03:07:57.092Z,0.90
2022-08-26T03:10:30.475Z,0.80
2022-08-26T03:13:01.341Z,0.70
2022-08-26T03:15:34.521Z,0.90
2022-08-26T03:18:03.812Z,0.90
2022-08-26T03:20:34.671Z,0.80
2022-08-26T03:23:03.756Z,0.70
2022-08-26T03:25:33.563Z,0.80
2022-08-26T03:28:02.964Z,0.90
2022-08-26T03:30:45.120Z,0.80
2022-08-26T03:33:15.512Z,1.00
2022-08-26T03:35:47.981Z,1.00
2022-08-26T03:38:22.782Z,0.80
2022-08-26T03:40:52.675Z,0.90
2022-08-26T03:43:23.101Z,0.80
2022-08-26T03:45:53.362Z,0.90
2022-08-26T03:48:24.322Z,1.10
2022-08-26T03:50:53.904Z,1.00
2022-08-26T03:53:24.442Z,1.00
2022-08-26T03:55:53.835Z,0.90
2022-08-26T03:58:25.080Z,1.10
2022-08-26T04:00:55.538Z,0.80
2022-08-26T04:03:44.877Z,0.80
2022-08-26T04:06:14.596Z,1.00
2022-08-26T04:08:46.250Z,1.10
2022-08-26T04:11:23.591Z,0.90
2022-08-26T04:13:52.731Z,1.10
2022-08-26T04:16:22.854Z,1.00
2022-08-26T04:18:56.142Z,0.90
2022-08-26T04:21:26.588Z,0.90
2022-08-26T04:23:56.308Z,1.20
2022-08-26T04:26:27.933Z,1.20
2022-08-26T04:28:57.347Z,0.90
2022-08-26T04:31:28.839Z,1.10
2022-08-26T04:34:00.345Z,0.80
2022-08-26T04:36:29.743Z,1.20
2022-08-26T04:39:01.570Z,1.10
2022-08-26T04:41:31.998Z,1.10
2022-08-26T04:44:03.042Z,1.20
2022-08-26T04:46:32.090Z,1.20
2022-08-26T04:49:01.143Z,0.80
2022-08-26T04:51:30.662Z,1.20
2022-08-26T04:54:00.368Z,1.20
2022-08-26T04:56:36.234Z,1.20
2022-08-26T04:59:16.739Z,1.20
2022-08-26T05:01:52.121Z,1.00
2022-08-26T05:04:22.663Z,1.20
2022-08-26T05:06:53.407Z,1.30
2022-08-26T05:09:26.187Z,1.30
2022-08-26T05:11:56.089Z,1.20
2022-08-26T05:14:25.799Z,1.60
2022-08-26T05:16:55.422Z,1.10
2022-08-26T05:19:27.973Z,1.40
2022-08-26T05:21:57.375Z,1.00
2022-08-26T05:24:26.906Z,1.10
2022-08-26T05:26:57.127Z,1.10
2022-08-26T05:29:26.425Z,0.90
2022-08-26T05:31:56.268Z,1.10
2022-08-26T05:34:30.080Z,1.30
2022-08-26T05:36:59.925Z,1.20
2022-08-26T05:39:29.402Z,1.10
2022-08-26T05:41:58.402Z,1.20
2022-08-26T05:44:27.472Z,1.10
2022-08-26T05:46:56.760Z,1.10
2022-08-26T05:49:26.429Z,1.20
2022-08-26T05:51:56.010Z,1.50
2022-08-26T05:54:25.254Z,1.20
2022-08-26T05:56:54.273Z,1.00
2022-08-26T05:59:24.571Z,1.30
2022-08-26T06:01:57.903Z,1.30
2022-08-26T06:04:29.511Z,1.20
2022-08-26T06:07:00.159Z,1.10
2022-08-26T06:09:29.570Z,1.10
2022-08-26T06:12:02.555Z,1.30
2022-08-26T06:14:32.171Z,1.60
2022-08-26T06:17:01.600Z,1.00
2022-08-26T06:19:32.987Z,1.70
2022-08-26T06:22:24.127Z,1.30
2022-08-26T06:25:14.722Z,1.50
2022-08-26T06:27:44.025Z,0.70
2022-08-26T06:30:13.537Z,1.10
2022-08-26T06:32:42.630Z,0.90
2022-08-26T06:35:12.548Z,1.20
2022-08-26T06:37:43.799Z,0.80
2022-08-26T06:40:13.076Z,0.80
2022-08-26T06:42:42.287Z,1.00
2022-08-26T06:45:12.423Z,0.90
2022-08-26T06:47:41.504Z,0.90
2022-08-26T06:50:10.964Z,1.00
2022-08-26T06:52:43.200Z,0.80
2022-08-26T06:55:12.507Z,1.00
2022-08-26T06:57:41.911Z,0.90
2022-08-26T07:00:11.967Z,0.80
2022-08-26T07:02:46.076Z,1.00
2022-08-26T07:05:17.145Z,0.80
2022-08-26T07:07:48.618Z,0.80
2022-08-26T07:10:17.789Z,1.00
2022-08-26T07:12:47.314Z,0.80
2022-08-26T07:15:17.489Z,1.00
2022-08-26T07:17:46.929Z,0.80
2022-08-26T07:20:16.279Z,0.90
2022-08-26T07:22:46.443Z,0.80
2022-08-26T07:25:16.044Z,0.90
2022-08-26T07:27:45.159Z,1.10
2022-08-26T07:30:14.966Z,1.10
2022-08-26T07:32:44.211Z,0.80
2022-08-26T07:35:14.827Z,1.00
2022-08-26T07:37:45.517Z,1.00
2022-08-26T07:40:16.813Z,0.90
2022-08-26T07:42:46.031Z,1.20
2022-08-26T07:45:15.419Z,1.00
2022-08-26T07:47:44.574Z,1.00
2022-08-26T07:50:14.137Z,0.90
2022-08-26T07:52:44.708Z,1.20
2022-08-26T07:55:15.259Z,1.20
2022-08-26T07:57:46.906Z,0.90
2022-08-26T08:00:17.628Z,1.30
2022-08-26T08:02:47.027Z,1.20
2022-08-26T08:05:18.900Z,1.30
2022-08-26T08:07:48.811Z,1.00
2022-08-26T08:10:25.580Z,1.20
2022-08-26T08:12:57.973Z,1.10
2022-08-26T08:15:31.757Z,1.30
2022-08-26T08:18:02.198Z,1.10
2022-08-26T08:20:34.721Z,1.10
2022-08-26T08:23:04.773Z,1.10
2022-08-26T08:25:35.821Z,1.20
2022-08-26T08:28:05.188Z,1.20
2022-08-26T08:30:35.073Z,1.20
2022-08-26T08:33:05.150Z,1.10
2022-08-26T08:35:35.185Z,1.10
2022-08-26T08:38:05.441Z,1.10
2022-08-26T08:40:42.337Z,1.20
2022-08-26T08:43:26.723Z,1.10
2022-08-26T08:46:23.805Z,1.10
2022-08-26T08:49:00.451Z,1.10
2022-08-26T08:51:48.797Z,1.10
2022-08-26T08:54:20.035Z,1.20
2022-08-26T08:56:53.746Z,1.20
2022-08-26T08:59:26.320Z,1.00
2022-08-26T09:02:32.839Z,1.30
2022-08-26T09:05:22.425Z,1.40
2022-08-26T09:07:58.097Z,1.20
2022-08-26T09:10:36.138Z,1.40
2022-08-26T09:13:13.753Z,1.30
2022-08-26T09:16:03.721Z,1.20
2022-08-26T09:19:05.510Z,1.20
2022-08-26T09:21:34.769Z,1.40
2022-08-26T09:24:04.396Z,1.40
2022-08-26T09:26:39.681Z,1.30
2022-08-26T09:29:23.533Z,1.20
2022-08-26T09:32:15.715Z,1.50
2022-08-26T09:35:32.525Z,1.30
2022-08-26T09:38:02.189Z,1.20
2022-08-26T09:40:37.224Z,1.20
2022-08-26T09:43:22.736Z,1.40
2022-08-26T09:45:59.423Z,1.30
2022-08-26T09:48:36.373Z,1.40
2022-08-26T09:51:27.391Z,1.30
2022-08-26T09:54:02.406Z,1.40
2022-08-26T09:56:35.207Z,1.20
2022-08-26T09:59:11.247Z,1.20
2022-08-26T10:01:45.768Z,1.10
2022-08-26T10:04:22.469Z,1.30
2022-08-26T10:07:02.234Z,1.20
2022-08-26T10:09:46.046Z,1.30
2022-08-26T10:12:21.931Z,1.30
2022-08-26T10:14:57.054Z,1.40
2022-08-26T10:17:35.607Z,1.40
2022-08-26T10:20:23.371Z,1.30
2022-08-26T10:23:03.238Z,1.50
2022-08-26T10:26:08.834Z,1.40
2022-08-26T10:29:07.297Z,1.50
2022-08-26T10:31:44.092Z,1.30
2022-08-26T10:34:14.943Z,1.50
2022-08-26T10:37:14.377Z,1.20
2022-08-26T10:39:56.893Z,1.50
2022-08-26T10:42:53.760Z,1.40
2022-08-26T10:45:29.329Z,1.60
2022-08-26T10:48:02.373Z,1.80
2022-08-26T10:50:42.451Z,1.50
2022-08-26T10:53:25.217Z,1.50
2022-08-26T10:56:26.105Z,1.70
2022-08-26T10:59:00.750Z,1.90
2022-08-26T11:01:50.971Z,1.80
2022-08-26T11:04:35.099Z,1.60
2022-08-26T11:07:36.605Z,2.00
2022-08-26T11:10:44.426Z,2.00
2022-08-26T11:13:13.581Z,1.80
2022-08-26T11:15:42.857Z,1.80
2022-08-26T11:18:38.385Z,1.90
2022-08-26T11:21:45.543Z,1.90
2022-08-26T11:24:58.140Z,1.80
2022-08-26T11:27:38.191Z,1.80
2022-08-26T11:30:31.403Z,2.10
2022-08-26T11:33:00.853Z,2.10
2022-08-26T11:35:37.482Z,2.10
2022-08-26T11:38:22.911Z,1.90
2022-08-26T11:41:20.470Z,2.00
2022-08-26T11:43:52.946Z,1.90
2022-08-26T11:46:32.135Z,2.00
2022-08-26T11:49:05.742Z,2.10
2022-08-26T11:54:16.463Z,1.50
2022-08-26T11:56:52.934Z,1.90
2022-08-26T12:02:16.659Z,2.20
2022-08-26T12:04:51.371Z,2.10
2022-08-26T12:09:59.091Z,1.40
2022-08-26T12:12:36.011Z,1.80
2022-08-26T12:15:24.394Z,1.70
2022-08-26T12:17:54.458Z,2.20
2022-08-26T12:20:48.717Z,2.00
2022-08-26T12:23:36.684Z,1.80
2022-08-26T12:26:38.096Z,1.80
2022-08-26T12:29:27.528Z,1.70
2022-08-26T12:32:16.421Z,1.80
2022-08-26T12:34:49.400Z,1.80
2022-08-26T12:37:19.071Z,2.20
2022-08-26T12:39:49.684Z,1.80
2022-08-26T12:42:24.603Z,2.20
2022-08-26T12:45:01.403Z,2.30
2022-08-26T12:47:42.692Z,2.10
2022-08-26T12:50:22.814Z,1.90
2022-08-26T12:52:58.569Z,2.30
2022-08-26T12:55:50.438Z,2.00
2022-08-26T12:58:33.492Z,2.20
2022-08-26T13:01:07.006Z,2.10
2022-08-26T13:03:46.019Z,2.00
2022-08-26T13:06:35.694Z,1.90
2022-08-26T13:09:11.126Z,2.10
2022-08-26T13:11:40.666Z,2.50
2022-08-26T13:14:12.532Z,2.30
2022-08-26T13:16:51.168Z,1.80
2022-08-26T13:19:23.863Z,2.40
2022-08-26T13:21:59.244Z,2.00
2022-08-26T13:24:49.145Z,1.90
2022-08-26T13:27:21.393Z,1.90
2022-08-26T13:29:52.477Z,2.10
2022-08-26T13:32:25.186Z,2.30
2022-08-26T13:34:58.274Z,1.90
2022-08-26T13:37:34.397Z,1.90
2022-08-26T13:40:07.903Z,2.50
2022-08-26T13:42:37.170Z,2.10
2022-08-26T13:45:19.411Z,2.40
2022-08-26T13:47:49.091Z,2.30
2022-08-26T13:50:18.931Z,2.20
2022-08-26T13:52:48.619Z,2.60
2022-08-26T13:55:18.331Z,1.90
2022-08-26T13:57:47.427Z,1.90
2022-08-26T14:00:17.328Z,2.20
2022-08-26T14:02:47.243Z,2.30
2022-08-26T14:05:16.672Z,2.00
2022-08-26T14:07:46.305Z,1.80
2022-08-26T14:10:15.585Z,2.50
2022-08-26T14:12:46.250Z,2.10
2022-08-26T14:15:18.659Z,2.30
2022-08-26T14:17:49.164Z,1.90
2022-08-26T14:20:28.145Z,2.00
2022-08-26T14:23:20.747Z,2.20
2022-08-26T14:25:47.696Z,2.00
2022-08-26T14:28:17.066Z,1.90
2022-08-26T14:30:53.666Z,1.90
2022-08-26T14:33:27.969Z,1.60
2022-08-26T14:36:17.362Z,1.90
2022-08-26T14:38:48.143Z,1.70
2022-08-26T14:41:19.412Z,1.90
2022-08-26T14:43:58.541Z,1.90
2022-08-26T14:46:34.644Z,2.20
2022-08-26T14:49:08.512Z,1.80
2022-08-26T14:51:41.433Z,2.20
2022-08-26T14:54:12.420Z,2.00
2022-08-26T14:56:47.312Z,2.00
2022-08-26T14:59:21.186Z,1.90
2022-08-26T15:01:50.705Z,1.90
2022-08-26T15:04:20.863Z,2.30
2022-08-26T15:06:50.967Z,2.10
2022-08-26T15:09:20.696Z,2.50
2022-08-26T15:11:50.461Z,2.40
2022-08-26T15:14:20.819Z,2.20
2022-08-26T15:16:52.469Z,2.20
2022-08-26T15:19:23.166Z,2.40
2022-08-26T15:21:52.840Z,1.80
2022-08-26T15:24:24.971Z,2.40
2022-08-26T15:26:54.895Z,2.30
2022-08-26T15:29:24.685Z,2.70
2022-08-26T15:31:55.248Z,2.70
2022-08-26T15:34:28.241Z,2.70
2022-08-26T15:36:57.513Z,2.20
2022-08-26T15:39:28.054Z,2.20
2022-08-26T15:41:57.554Z,2.30
2022-08-26T15:44:27.511Z,2.50
2022-08-26T15:46:58.732Z,2.40
2022-08-26T15:49:28.522Z,2.70
2022-08-26T15:51:57.710Z,2.50
2022-08-26T15:54:27.166Z,2.80
2022-08-26T15:56:56.658Z,2.60
2022-08-26T15:59:26.596Z,2.60
2022-08-26T16:01:56.395Z,2.60
2022-08-26T16:04:26.677Z,3.00
2022-08-26T16:06:56.255Z,2.50
2022-08-26T16:09:27.850Z,3.20
2022-08-26T16:12:00.639Z,3.10
2022-08-26T16:14:30.654Z,3.20
2022-08-26T16:16:59.926Z,3.20
2022-08-26T16:19:29.250Z,3.00
2022-08-26T16:21:58.436Z,3.20
2022-08-26T16:24:30.518Z,3.00
2022-08-26T16:27:00.303Z,3.40
2022-08-26T16:29:29.719Z,3.30
2022-08-26T16:31:59.231Z,3.00
2022-08-26T16:34:28.216Z,3.40
2022-08-26T16:36:57.605Z,3.20
2022-08-26T16:39:27.525Z,2.70
2022-08-26T16:41:56.744Z,3.20
2022-08-26T16:44:28.086Z,2.70
2022-08-26T16:47:00.824Z,3.20
2022-08-26T16:49:30.173Z,3.10
2022-08-26T16:51:59.464Z,3.30
2022-08-26T16:54:28.423Z,3.30
2022-08-26T16:56:58.263Z,3.30
2022-08-26T16:59:28.718Z,3.20
2022-08-26T17:01:57.685Z,3.40
2022-08-26T17:04:28.381Z,3.40
2022-08-26T17:06:57.646Z,3.70
2022-08-26T17:09:27.808Z,3.60
2022-08-26T17:11:57.151Z,3.50
2022-08-26T17:14:26.742Z,3.50
2022-08-26T17:16:56.163Z,3.10
2022-08-26T17:19:26.033Z,3.50
2022-08-26T17:21:55.003Z,3.00
2022-08-26T17:24:24.070Z,3.20
2022-08-26T17:26:55.482Z,3.60
2022-08-26T17:29:25.005Z,3.40
2022-08-26T17:31:54.211Z,3.40
2022-08-26T17:34:24.267Z,3.50
2022-08-26T17:36:53.616Z,3.50
2022-08-26T17:39:23.015Z,4.00
2022-08-26T17:41:52.322Z,3.10
2022-08-26T17:44:21.634Z,3.20
2022-08-26T17:46:51.169Z,3.10
2022-08-26T17:49:20.522Z,2.90
2022-08-26T17:51:51.171Z,2.70
2022-08-26T17:54:23.543Z,3.20
2022-08-26T17:56:53.635Z,3.10
2022-08-26T17:59:24.596Z,3.00
2022-08-26T18:02:00.429Z,2.70
2022-08-26T18:04:29.914Z,3.30
2022-08-26T18:06:59.223Z,2.70
2022-08-26T18:09:31.955Z,2.60
2022-08-26T18:12:01.346Z,3.10
2022-08-26T18:14:32.598Z,3.20
2022-08-26T18:17:01.910Z,3.50
2022-08-26T18:19:32.052Z,2.80
2022-08-26T18:22:01.511Z,2.80
2022-08-26T18:24:32.953Z,3.00
2022-08-26T18:27:02.150Z,2.70
2022-08-26T18:29:31.258Z,2.90
2022-08-26T18:32:00.654Z,2.80
2022-08-26T18:34:31.625Z,2.90
2022-08-26T18:37:02.211Z,3.30
2022-08-26T18:39:31.728Z,3.20
2022-08-26T18:42:01.148Z,2.90
2022-08-26T18:44:30.260Z,3.30
2022-08-26T18:46:59.424Z,2.80
2022-08-26T18:49:28.741Z,2.90
2022-08-26T18:51:58.145Z,2.20
2022-08-26T18:54:27.758Z,2.30
2022-08-26T18:56:57.555Z,2.40
2022-08-26T18:59:30.552Z,2.60
2022-08-26T19:02:00.544Z,2.40
2022-08-26T19:04:30.195Z,2.20
2022-08-26T19:06:59.578Z,2.20
2022-08-26T19:09:31.838Z,2.50
2022-08-26T19:12:02.751Z,2.60
2022-08-26T19:14:32.087Z,2.20
2022-08-26T19:17:02.040Z,2.60
2022-08-26T19:19:32.291Z,2.50
2022-08-26T19:22:01.718Z,2.40
2022-08-26T19:24:31.146Z,2.20
2022-08-26T19:27:01.748Z,2.10
2022-08-26T19:29:34.249Z,1.70
2022-08-26T19:32:05.014Z,1.90
2022-08-26T19:34:35.586Z,1.60
2022-08-26T19:37:05.231Z,2.10
2022-08-26T19:39:34.218Z,1.60
2022-08-26T19:42:04.074Z,1.90
2022-08-26T19:44:51.951Z,1.90
2022-08-26T19:47:21.653Z,1.50
2022-08-26T19:49:55.516Z,1.70
2022-08-26T19:52:30.109Z,1.70
2022-08-26T19:55:01.187Z,1.90
2022-08-26T19:57:30.674Z,1.90
2022-08-26T20:00:00.540Z,1.60
2022-08-26T20:02:30.196Z,1.80
2022-08-26T20:04:59.350Z,1.70
2022-08-26T20:07:29.098Z,1.60
2022-08-26T20:09:58.361Z,1.40
2022-08-26T20:12:28.341Z,1.80
2022-08-26T20:14:57.389Z,1.80
2022-08-26T20:17:26.590Z,1.70
2022-08-26T20:20:31.609Z,1.90
2022-08-26T20:23:05.157Z,1.50
2022-08-26T20:25:35.298Z,1.70
2022-08-26T20:28:06.024Z,1.60
2022-08-26T20:30:35.670Z,1.90
2022-08-26T20:33:04.980Z,1.80
2022-08-26T20:35:34.395Z,1.40
2022-08-26T20:38:04.009Z,1.80
2022-08-26T20:40:34.164Z,2.00
2022-08-26T20:43:04.498Z,1.90
2022-08-26T20:45:33.773Z,1.60
2022-08-26T20:48:03.487Z,2.00
2022-08-26T20:50:33.634Z,1.90
2022-08-26T20:53:03.737Z,2.10
2022-08-26T20:55:33.865Z,1.80
2022-08-26T20:58:03.064Z,2.00
2022-08-26T21:00:32.744Z,2.00
2022-08-26T21:03:01.995Z,2.10
2022-08-26T21:05:31.389Z,1.80
2022-08-26T21:08:00.336Z,1.70
2022-08-26T21:10:31.121Z,1.90
2022-08-26T21:13:00.547Z,2.00
2022-08-26T21:15:30.295Z,2.00
2022-08-26T21:18:01.823Z,1.70
2022-08-26T21:20:33.096Z,1.60
2022-08-26T21:23:02.340Z,1.90
2022-08-26T21:25:31.659Z,1.60
2022-08-26T21:28:01.355Z,1.60
2022-08-26T21:30:30.866Z,2.10
2022-08-26T21:33:00.377Z,1.60
2022-08-26T21:35:29.453Z,1.50
2022-08-26T21:37:58.858Z,1.70
2022-08-26T21:40:28.669Z,1.80
2022-08-26T21:42:57.776Z,2.30
2022-08-26T21:45:26.992Z,2.20
2022-08-26T21:47:56.361Z,2.10
2022-08-26T21:50:25.661Z,2.10
2022-08-26T21:52:55.376Z,3.10
2022-08-26T21:55:24.681Z,2.00
2022-08-26T21:57:53.984Z,2.30
2022-08-26T22:00:25.022Z,2.60
2022-08-26T22:02:54.465Z,2.80
2022-08-26T22:05:23.623Z,2.40
2022-08-26T22:07:52.977Z,2.70
2022-08-26T22:10:23.223Z,3.30
2022-08-26T22:12:52.754Z,2.90
2022-08-26T22:15:23.932Z,2.60
2022-08-26T22:17:53.093Z,2.60
2022-08-26T22:20:23.157Z,2.90
2022-08-26T22:22:52.263Z,2.80
2022-08-26T22:25:22.384Z,2.70
2022-08-26T22:27:52.196Z,2.70
2022-08-26T22:30:21.544Z,3.50
2022-08-26T22:32:50.850Z,3.00
2022-08-26T22:35:28.270Z,2.90
2022-08-26T22:38:00.366Z,3.90
2022-08-26T22:40:29.986Z,3.60
2022-08-26T22:43:00.410Z,3.00
2022-08-26T22:45:33.405Z,3.40
2022-08-26T22:48:05.143Z,3.40
2022-08-26T22:50:34.603Z,3.90
2022-08-26T22:53:04.218Z,3.10
2022-08-26T22:55:33.696Z,3.40
2022-08-26T22:58:03.179Z,3.70
2022-08-26T23:00:33.136Z,3.50
2022-08-26T23:03:03.653Z,3.50
2022-08-26T23:05:33.324Z,3.50
2022-08-26T23:08:03.377Z,4.10
2022-08-26T23:10:33.425Z,3.50
2022-08-26T23:13:04.195Z,3.20
2022-08-26T23:15:33.335Z,4.10
2022-08-26T23:18:03.681Z,5.00
2022-08-26T23:20:33.351Z,3.40
2022-08-26T23:23:03.527Z,3.30
2022-08-26T23:25:33.337Z,4.70
2022-08-26T23:28:03.195Z,3.90
2022-08-26T23:30:34.893Z,3.80
2022-08-26T23:33:04.291Z,3.30
2022-08-26T23:35:33.170Z,4.70
2022-08-26T23:38:03.065Z,4.60
2022-08-26T23:40:35.195Z,4.30
2022-08-26T23:43:08.058Z,3.60
2022-08-26T23:45:37.298Z,4.70
2022-08-26T23:48:07.517Z,5.80
2022-08-26T23:50:55.467Z,4.50
2022-08-26T23:53:25.078Z,3.60
2022-08-26T23:55:54.788Z,3.90
2022-08-26T23:58:24.110Z,5.00
